AXP weather

Spring Point Airport
Spring Point, Acklins and Crooked Islands, Bahamas

Public forecast

Using degrees Celsius for public forecast. Weather courtesy of forecast.io.

METAR (pilot weather report)

Closest report is Providenciales Airport, 103.0 nm (190.7 km) ESE. Retrieved 2019/07/21 18:00 UTC (19 minutes ago):

MBPV 211800Z 10010KT 9999 SCT016 32/26 Q1015

TAF (pilot weather forecast)

Closest forecast is Providenciales Airport, 103.0 nm (190.7 km) ESE. Retrieved 2019/07/21 12:30 UTC (6 hours ago):

TAF MBPV 201020Z 2012/2112 07005KT 9999 VCSH FEW016 SCT050 PROB30 TEMPO 2018/2022 12015KT 4800 TSRA SCT012CB SCT016 BKN070 BECMG 2100/2102 12005KT